sensor_id;sensor_type;location;lat;lon;timestamp;P1;durP1;ratioP1;P2;durP2;ratioP2
84527;SDS011;74768;51.152;6.196;2024-03-07T00:01:16;75.53;;;30.73;;
84527;SDS011;74768;51.152;6.196;2024-03-07T00:03:42;66.43;;;27.60;;
84527;SDS011;74768;51.152;6.196;2024-03-07T00:06:07;63.27;;;25.63;;
84527;SDS011;74768;51.152;6.196;2024-03-07T00:08:33;65.95;;;28.55;;
84527;SDS011;74768;51.152;6.196;2024-03-07T00:10:59;62.63;;;25.00;;
84527;SDS011;74768;51.152;6.196;2024-03-07T00:13:24;67.60;;;24.20;;
84527;SDS011;74768;51.152;6.196;2024-03-07T00:15:49;61.00;;;28.58;;
84527;SDS011;74768;51.152;6.196;2024-03-07T00:18:15;68.03;;;24.83;;
84527;SDS011;74768;51.152;6.196;2024-03-07T00:20:41;63.67;;;24.83;;
84527;SDS011;74768;51.152;6.196;2024-03-07T00:23:07;64.72;;;23.55;;
84527;SDS011;74768;51.152;6.196;2024-03-07T00:25:34;66.13;;;26.50;;
84527;SDS011;74768;51.152;6.196;2024-03-07T00:27:59;59.27;;;24.40;;
84527;SDS011;74768;51.152;6.196;2024-03-07T00:30:28;63.15;;;25.38;;
84527;SDS011;74768;51.152;6.196;2024-03-07T00:32:54;60.60;;;26.13;;
84527;SDS011;74768;51.152;6.196;2024-03-07T00:35:20;70.95;;;25.42;;
84527;SDS011;74768;51.152;6.196;2024-03-07T00:37:46;58.53;;;23.90;;
84527;SDS011;74768;51.152;6.196;2024-03-07T00:40:12;63.85;;;25.55;;
84527;SDS011;74768;51.152;6.196;2024-03-07T00:42:38;52.58;;;21.50;;
84527;SDS011;74768;51.152;6.196;2024-03-07T00:45:04;64.85;;;26.88;;
84527;SDS011;74768;51.152;6.196;2024-03-07T00:47:30;67.38;;;25.20;;
84527;SDS011;74768;51.152;6.196;2024-03-07T00:49:57;61.45;;;25.63;;
84527;SDS011;74768;51.152;6.196;2024-03-07T00:52:22;72.45;;;28.02;;
84527;SDS011;74768;51.152;6.196;2024-03-07T00:54:47;56.50;;;24.20;;
84527;SDS011;74768;51.152;6.196;2024-03-07T00:57:12;62.43;;;22.97;;
84527;SDS011;74768;51.152;6.196;2024-03-07T00:59:38;60.03;;;24.67;;
84527;SDS011;74768;51.152;6.196;2024-03-07T01:02:03;67.23;;;25.70;;
84527;SDS011;74768;51.152;6.196;2024-03-07T01:04:29;55.97;;;25.48;;
84527;SDS011;74768;51.152;6.196;2024-03-07T01:06:59;66.35;;;27.88;;
84527;SDS011;74768;51.152;6.196;2024-03-07T01:09:25;61.60;;;24.67;;
84527;SDS011;74768;51.152;6.196;2024-03-07T01:11:53;64.97;;;24.10;;
84527;SDS011;74768;51.152;6.196;2024-03-07T01:14:18;51.20;;;22.80;;
84527;SDS011;74768;51.152;6.196;2024-03-07T01:16:43;60.63;;;23.77;;
84527;SDS011;74768;51.152;6.196;2024-03-07T01:19:09;69.47;;;28.20;;
84527;SDS011;74768;51.152;6.196;2024-03-07T01:21:34;61.40;;;24.27;;
84527;SDS011;74768;51.152;6.196;2024-03-07T01:24:00;59.47;;;24.90;;
84527;SDS011;74768;51.152;6.196;2024-03-07T01:26:29;64.05;;;26.02;;
84527;SDS011;74768;51.152;6.196;2024-03-07T01:28:59;61.38;;;25.88;;
84527;SDS011;74768;51.152;6.196;2024-03-07T01:31:24;71.15;;;28.30;;
84527;SDS011;74768;51.152;6.196;2024-03-07T01:33:50;72.18;;;28.08;;
84527;SDS011;74768;51.152;6.196;2024-03-07T01:36:15;69.20;;;26.30;;
84527;SDS011;74768;51.152;6.196;2024-03-07T01:38:41;57.10;;;25.13;;
84527;SDS011;74768;51.152;6.196;2024-03-07T01:41:06;60.55;;;24.02;;
84527;SDS011;74768;51.152;6.196;2024-03-07T01:43:32;66.18;;;23.88;;
84527;SDS011;74768;51.152;6.196;2024-03-07T01:45:57;55.00;;;23.80;;
84527;SDS011;74768;51.152;6.196;2024-03-07T01:48:26;64.82;;;26.48;;
84527;SDS011;74768;51.152;6.196;2024-03-07T01:50:54;65.60;;;25.33;;
84527;SDS011;74768;51.152;6.196;2024-03-07T01:53:20;62.17;;;23.75;;
84527;SDS011;74768;51.152;6.196;2024-03-07T01:55:46;66.65;;;26.65;;
84527;SDS011;74768;51.152;6.196;2024-03-07T01:58:12;68.80;;;27.02;;
84527;SDS011;74768;51.152;6.196;2024-03-07T02:00:39;66.85;;;25.35;;
84527;SDS011;74768;51.152;6.196;2024-03-07T02:03:04;60.38;;;23.05;;
84527;SDS011;74768;51.152;6.196;2024-03-07T02:05:33;73.60;;;29.73;;
84527;SDS011;74768;51.152;6.196;2024-03-07T02:07:59;52.10;;;22.30;;
84527;SDS011;74768;51.152;6.196;2024-03-07T02:10:24;68.57;;;28.43;;
84527;SDS011;74768;51.152;6.196;2024-03-07T02:12:50;72.30;;;27.88;;
84527;SDS011;74768;51.152;6.196;2024-03-07T02:15:15;59.25;;;25.80;;
84527;SDS011;74768;51.152;6.196;2024-03-07T02:17:41;63.60;;;24.83;;
84527;SDS011;74768;51.152;6.196;2024-03-07T02:20:08;62.20;;;23.67;;
84527;SDS011;74768;51.152;6.196;2024-03-07T02:22:35;63.00;;;26.08;;
84527;SDS011;74768;51.152;6.196;2024-03-07T02:25:01;70.63;;;28.73;;
84527;SDS011;74768;51.152;6.196;2024-03-07T02:27:26;74.00;;;27.33;;
84527;SDS011;74768;51.152;6.196;2024-03-07T02:29:51;91.80;;;30.03;;
84527;SDS011;74768;51.152;6.196;2024-03-07T02:32:17;89.23;;;29.20;;
84527;SDS011;74768;51.152;6.196;2024-03-07T02:34:42;78.82;;;31.02;;
84527;SDS011;74768;51.152;6.196;2024-03-07T02:37:08;84.85;;;31.00;;
84527;SDS011;74768;51.152;6.196;2024-03-07T02:39:34;83.35;;;28.20;;
84527;SDS011;74768;51.152;6.196;2024-03-07T02:42:01;75.88;;;29.70;;
84527;SDS011;74768;51.152;6.196;2024-03-07T02:44:26;75.53;;;28.40;;
84527;SDS011;74768;51.152;6.196;2024-03-07T02:46:51;74.23;;;27.80;;
84527;SDS011;74768;51.152;6.196;2024-03-07T02:49:16;68.87;;;28.43;;
84527;SDS011;74768;51.152;6.196;2024-03-07T02:51:42;69.43;;;26.70;;
84527;SDS011;74768;51.152;6.196;2024-03-07T02:54:07;68.93;;;24.60;;
84527;SDS011;74768;51.152;6.196;2024-03-07T02:56:33;65.40;;;25.77;;
84527;SDS011;74768;51.152;6.196;2024-03-07T02:59:00;69.07;;;24.50;;
84527;SDS011;74768;51.152;6.196;2024-03-07T03:01:26;75.57;;;27.88;;
84527;SDS011;74768;51.152;6.196;2024-03-07T03:03:51;77.47;;;27.73;;
84527;SDS011;74768;51.152;6.196;2024-03-07T03:06:16;92.30;;;32.42;;
84527;SDS011;74768;51.152;6.196;2024-03-07T03:08:45;88.82;;;33.97;;
84527;SDS011;74768;51.152;6.196;2024-03-07T03:11:10;88.10;;;31.90;;
84527;SDS011;74768;51.152;6.196;2024-03-07T03:13:39;98.57;;;33.30;;
84527;SDS011;74768;51.152;6.196;2024-03-07T03:16:08;90.85;;;33.45;;
84527;SDS011;74768;51.152;6.196;2024-03-07T03:18:34;87.70;;;30.65;;
84527;SDS011;74768;51.152;6.196;2024-03-07T03:21:00;91.95;;;32.03;;
84527;SDS011;74768;51.152;6.196;2024-03-07T03:23:27;98.60;;;32.58;;
84527;SDS011;74768;51.152;6.196;2024-03-07T03:25:52;85.43;;;30.50;;
84527;SDS011;74768;51.152;6.196;2024-03-07T03:28:18;82.07;;;30.80;;
84527;SDS011;74768;51.152;6.196;2024-03-07T03:30:44;77.50;;;28.15;;
84527;SDS011;74768;51.152;6.196;2024-03-07T03:33:10;75.07;;;31.13;;
84527;SDS011;74768;51.152;6.196;2024-03-07T03:35:36;66.72;;;26.58;;
84527;SDS011;74768;51.152;6.196;2024-03-07T03:38:02;79.88;;;29.85;;
84527;SDS011;74768;51.152;6.196;2024-03-07T03:40:28;69.43;;;27.10;;
84527;SDS011;74768;51.152;6.196;2024-03-07T03:42:53;69.57;;;29.40;;
84527;SDS011;74768;51.152;6.196;2024-03-07T03:45:19;62.88;;;23.83;;
84527;SDS011;74768;51.152;6.196;2024-03-07T03:47:44;80.15;;;30.95;;
84527;SDS011;74768;51.152;6.196;2024-03-07T03:50:10;75.30;;;27.40;;
84527;SDS011;74768;51.152;6.196;2024-03-07T03:52:37;78.55;;;29.20;;
84527;SDS011;74768;51.152;6.196;2024-03-07T03:55:02;81.88;;;28.83;;
84527;SDS011;74768;51.152;6.196;2024-03-07T03:57:32;87.45;;;31.38;;
84527;SDS011;74768;51.152;6.196;2024-03-07T03:59:58;92.80;;;30.17;;
84527;SDS011;74768;51.152;6.196;2024-03-07T04:02:24;85.93;;;31.48;;
84527;SDS011;74768;51.152;6.196;2024-03-07T04:04:51;103.22;;;32.65;;
84527;SDS011;74768;51.152;6.196;2024-03-07T04:07:17;97.63;;;31.42;;
84527;SDS011;74768;51.152;6.196;2024-03-07T04:09:43;84.28;;;31.15;;
84527;SDS011;74768;51.152;6.196;2024-03-07T04:12:12;88.43;;;31.73;;
84527;SDS011;74768;51.152;6.196;2024-03-07T04:14:41;84.50;;;33.47;;
84527;SDS011;74768;51.152;6.196;2024-03-07T04:17:08;100.93;;;33.95;;
84527;SDS011;74768;51.152;6.196;2024-03-07T04:19:35;103.88;;;35.33;;
84527;SDS011;74768;51.152;6.196;2024-03-07T04:22:00;99.68;;;33.55;;
84527;SDS011;74768;51.152;6.196;2024-03-07T04:24:28;94.60;;;34.00;;
84527;SDS011;74768;51.152;6.196;2024-03-07T04:26:53;95.20;;;32.78;;
84527;SDS011;74768;51.152;6.196;2024-03-07T04:29:19;87.47;;;33.13;;
84527;SDS011;74768;51.152;6.196;2024-03-07T04:31:44;108.15;;;35.55;;
84527;SDS011;74768;51.152;6.196;2024-03-07T04:34:09;80.67;;;31.17;;
84527;SDS011;74768;51.152;6.196;2024-03-07T04:36:34;84.13;;;29.20;;
84527;SDS011;74768;51.152;6.196;2024-03-07T04:39:00;78.47;;;28.90;;
84527;SDS011;74768;51.152;6.196;2024-03-07T04:41:26;87.82;;;30.58;;
84527;SDS011;74768;51.152;6.196;2024-03-07T04:43:53;63.00;;;27.65;;
84527;SDS011;74768;51.152;6.196;2024-03-07T04:46:19;70.45;;;28.73;;
84527;SDS011;74768;51.152;6.196;2024-03-07T04:48:45;70.65;;;27.63;;
84527;SDS011;74768;51.152;6.196;2024-03-07T04:51:10;71.05;;;27.00;;
84527;SDS011;74768;51.152;6.196;2024-03-07T04:53:35;79.70;;;30.83;;
84527;SDS011;74768;51.152;6.196;2024-03-07T04:56:03;87.97;;;32.53;;
84527;SDS011;74768;51.152;6.196;2024-03-07T04:58:29;90.40;;;30.75;;
84527;SDS011;74768;51.152;6.196;2024-03-07T05:00:54;107.37;;;36.13;;
84527;SDS011;74768;51.152;6.196;2024-03-07T05:03:19;90.72;;;31.63;;
84527;SDS011;74768;51.152;6.196;2024-03-07T05:05:45;84.57;;;30.93;;
84527;SDS011;74768;51.152;6.196;2024-03-07T05:08:10;80.75;;;29.65;;
84527;SDS011;74768;51.152;6.196;2024-03-07T05:10:36;76.78;;;28.75;;
84527;SDS011;74768;51.152;6.196;2024-03-07T05:13:02;70.47;;;27.37;;
84527;SDS011;74768;51.152;6.196;2024-03-07T05:15:27;61.03;;;26.08;;
84527;SDS011;74768;51.152;6.196;2024-03-07T05:17:52;64.53;;;27.40;;
84527;SDS011;74768;51.152;6.196;2024-03-07T05:20:18;70.93;;;29.13;;
84527;SDS011;74768;51.152;6.196;2024-03-07T05:22:43;78.20;;;32.20;;
84527;SDS011;74768;51.152;6.196;2024-03-07T05:25:17;77.35;;;29.67;;
84527;SDS011;74768;51.152;6.196;2024-03-07T05:27:47;88.70;;;31.30;;
84527;SDS011;74768;51.152;6.196;2024-03-07T05:30:15;70.20;;;28.35;;
84527;SDS011;74768;51.152;6.196;2024-03-07T05:32:40;80.68;;;29.42;;
84527;SDS011;74768;51.152;6.196;2024-03-07T05:35:06;85.13;;;30.77;;
84527;SDS011;74768;51.152;6.196;2024-03-07T05:37:32;82.05;;;29.98;;
84527;SDS011;74768;51.152;6.196;2024-03-07T05:39:57;96.53;;;34.63;;
84527;SDS011;74768;51.152;6.196;2024-03-07T05:42:23;109.27;;;34.07;;
84527;SDS011;74768;51.152;6.196;2024-03-07T05:44:50;143.30;;;38.13;;
84527;SDS011;74768;51.152;6.196;2024-03-07T05:47:15;124.82;;;41.38;;
84527;SDS011;74768;51.152;6.196;2024-03-07T05:49:41;104.03;;;34.63;;
84527;SDS011;74768;51.152;6.196;2024-03-07T05:52:07;103.88;;;32.40;;
84527;SDS011;74768;51.152;6.196;2024-03-07T05:54:33;109.10;;;37.22;;
84527;SDS011;74768;51.152;6.196;2024-03-07T05:56:59;83.13;;;32.75;;
84527;SDS011;74768;51.152;6.196;2024-03-07T05:59:25;93.60;;;35.55;;
84527;SDS011;74768;51.152;6.196;2024-03-07T06:01:51;94.75;;;31.85;;
84527;SDS011;74768;51.152;6.196;2024-03-07T06:04:17;89.57;;;33.40;;
84527;SDS011;74768;51.152;6.196;2024-03-07T06:06:42;85.83;;;31.60;;
84527;SDS011;74768;51.152;6.196;2024-03-07T06:09:08;96.13;;;31.27;;
84527;SDS011;74768;51.152;6.196;2024-03-07T06:11:35;83.38;;;31.58;;
84527;SDS011;74768;51.152;6.196;2024-03-07T06:14:04;90.03;;;33.40;;
84527;SDS011;74768;51.152;6.196;2024-03-07T06:16:39;103.55;;;33.58;;
84527;SDS011;74768;51.152;6.196;2024-03-07T06:19:06;103.65;;;32.25;;
84527;SDS011;74768;51.152;6.196;2024-03-07T06:21:32;99.40;;;35.05;;
84527;SDS011;74768;51.152;6.196;2024-03-07T06:24:01;86.45;;;30.83;;
84527;SDS011;74768;51.152;6.196;2024-03-07T06:26:30;118.28;;;34.13;;
84527;SDS011;74768;51.152;6.196;2024-03-07T06:29:10;155.60;;;38.17;;
84527;SDS011;74768;51.152;6.196;2024-03-07T06:31:39;90.07;;;33.10;;
84527;SDS011;74768;51.152;6.196;2024-03-07T06:34:05;101.18;;;34.47;;
84527;SDS011;74768;51.152;6.196;2024-03-07T06:36:30;109.20;;;32.30;;
84527;SDS011;74768;51.152;6.196;2024-03-07T06:38:56;104.70;;;32.22;;
84527;SDS011;74768;51.152;6.196;2024-03-07T06:41:21;100.83;;;34.67;;
84527;SDS011;74768;51.152;6.196;2024-03-07T06:43:46;113.47;;;33.55;;
84527;SDS011;74768;51.152;6.196;2024-03-07T06:46:12;109.70;;;34.17;;
84527;SDS011;74768;51.152;6.196;2024-03-07T06:48:40;103.82;;;34.55;;
84527;SDS011;74768;51.152;6.196;2024-03-07T06:51:06;102.18;;;34.67;;
84527;SDS011;74768;51.152;6.196;2024-03-07T06:53:32;109.35;;;35.22;;
84527;SDS011;74768;51.152;6.196;2024-03-07T06:55:57;108.37;;;34.97;;
84527;SDS011;74768;51.152;6.196;2024-03-07T06:58:22;106.03;;;36.35;;
84527;SDS011;74768;51.152;6.196;2024-03-07T07:00:48;115.60;;;40.20;;
84527;SDS011;74768;51.152;6.196;2024-03-07T07:03:16;123.10;;;35.20;;
84527;SDS011;74768;51.152;6.196;2024-03-07T07:05:43;121.05;;;38.75;;
84527;SDS011;74768;51.152;6.196;2024-03-07T07:08:09;123.57;;;35.97;;
84527;SDS011;74768;51.152;6.196;2024-03-07T07:10:35;118.55;;;38.88;;
84527;SDS011;74768;51.152;6.196;2024-03-07T07:13:01;128.82;;;42.75;;
84527;SDS011;74768;51.152;6.196;2024-03-07T07:15:29;129.43;;;36.92;;
84527;SDS011;74768;51.152;6.196;2024-03-07T07:17:54;138.02;;;43.75;;
84527;SDS011;74768;51.152;6.196;2024-03-07T07:20:20;133.48;;;41.10;;
84527;SDS011;74768;51.152;6.196;2024-03-07T07:22:46;137.38;;;41.35;;
84527;SDS011;74768;51.152;6.196;2024-03-07T07:25:12;131.27;;;44.60;;
84527;SDS011;74768;51.152;6.196;2024-03-07T07:27:42;135.52;;;39.85;;
84527;SDS011;74768;51.152;6.196;2024-03-07T07:30:09;149.65;;;47.55;;
84527;SDS011;74768;51.152;6.196;2024-03-07T07:32:36;153.20;;;47.30;;
84527;SDS011;74768;51.152;6.196;2024-03-07T07:35:02;178.80;;;48.47;;
84527;SDS011;74768;51.152;6.196;2024-03-07T07:37:27;181.95;;;49.95;;
84527;SDS011;74768;51.152;6.196;2024-03-07T07:39:53;197.43;;;49.47;;
84527;SDS011;74768;51.152;6.196;2024-03-07T07:42:18;133.02;;;46.80;;
84527;SDS011;74768;51.152;6.196;2024-03-07T07:44:43;130.57;;;45.65;;
84527;SDS011;74768;51.152;6.196;2024-03-07T07:47:09;115.35;;;40.60;;
84527;SDS011;74768;51.152;6.196;2024-03-07T07:49:36;101.82;;;39.75;;
84527;SDS011;74768;51.152;6.196;2024-03-07T07:52:03;113.05;;;37.22;;
84527;SDS011;74768;51.152;6.196;2024-03-07T07:54:29;106.57;;;41.63;;
84527;SDS011;74768;51.152;6.196;2024-03-07T07:56:54;123.03;;;44.63;;
84527;SDS011;74768;51.152;6.196;2024-03-07T07:59:20;93.13;;;37.28;;
84527;SDS011;74768;51.152;6.196;2024-03-07T08:01:45;85.73;;;37.07;;
84527;SDS011;74768;51.152;6.196;2024-03-07T08:04:10;83.40;;;33.27;;
84527;SDS011;74768;51.152;6.196;2024-03-07T08:06:36;81.22;;;32.83;;
84527;SDS011;74768;51.152;6.196;2024-03-07T08:09:01;80.70;;;35.33;;
84527;SDS011;74768;51.152;6.196;2024-03-07T08:11:26;79.88;;;34.08;;
84527;SDS011;74768;51.152;6.196;2024-03-07T08:13:52;82.53;;;34.90;;
84527;SDS011;74768;51.152;6.196;2024-03-07T08:16:17;83.07;;;38.43;;
84527;SDS011;74768;51.152;6.196;2024-03-07T08:18:42;76.25;;;33.95;;
84527;SDS011;74768;51.152;6.196;2024-03-07T08:21:09;73.93;;;34.67;;
84527;SDS011;74768;51.152;6.196;2024-03-07T08:23:36;78.72;;;35.70;;
84527;SDS011;74768;51.152;6.196;2024-03-07T08:26:01;87.20;;;36.60;;
84527;SDS011;74768;51.152;6.196;2024-03-07T08:28:27;68.40;;;29.92;;
84527;SDS011;74768;51.152;6.196;2024-03-07T08:30:52;61.00;;;27.05;;
84527;SDS011;74768;51.152;6.196;2024-03-07T08:33:18;71.70;;;31.23;;
84527;SDS011;74768;51.152;6.196;2024-03-07T08:35:46;65.75;;;31.63;;
84527;SDS011;74768;51.152;6.196;2024-03-07T08:38:12;66.10;;;30.30;;
84527;SDS011;74768;51.152;6.196;2024-03-07T08:40:37;59.47;;;28.77;;
84527;SDS011;74768;51.152;6.196;2024-03-07T08:43:03;63.53;;;30.45;;
84527;SDS011;74768;51.152;6.196;2024-03-07T08:45:29;60.25;;;28.98;;
84527;SDS011;74768;51.152;6.196;2024-03-07T08:47:58;58.88;;;24.25;;
84527;SDS011;74768;51.152;6.196;2024-03-07T08:50:23;57.13;;;25.55;;
84527;SDS011;74768;51.152;6.196;2024-03-07T08:52:50;63.97;;;26.30;;
84527;SDS011;74768;51.152;6.196;2024-03-07T08:55:16;56.97;;;27.13;;
84527;SDS011;74768;51.152;6.196;2024-03-07T08:57:44;55.70;;;25.52;;
84527;SDS011;74768;51.152;6.196;2024-03-07T09:00:11;46.50;;;23.20;;
84527;SDS011;74768;51.152;6.196;2024-03-07T09:02:46;51.30;;;24.63;;
84527;SDS011;74768;51.152;6.196;2024-03-07T09:05:12;43.40;;;22.27;;
84527;SDS011;74768;51.152;6.196;2024-03-07T09:07:39;48.50;;;23.40;;
84527;SDS011;74768;51.152;6.196;2024-03-07T09:10:04;42.20;;;21.35;;
84527;SDS011;74768;51.152;6.196;2024-03-07T09:12:31;42.60;;;21.48;;
84527;SDS011;74768;51.152;6.196;2024-03-07T09:14:57;46.58;;;21.60;;
84527;SDS011;74768;51.152;6.196;2024-03-07T09:17:23;45.00;;;22.37;;
84527;SDS011;74768;51.152;6.196;2024-03-07T09:19:48;38.05;;;20.60;;
84527;SDS011;74768;51.152;6.196;2024-03-07T09:22:14;41.72;;;20.02;;
84527;SDS011;74768;51.152;6.196;2024-03-07T09:24:39;36.50;;;19.20;;
84527;SDS011;74768;51.152;6.196;2024-03-07T09:27:04;39.57;;;20.13;;
84527;SDS011;74768;51.152;6.196;2024-03-07T09:29:30;41.05;;;21.63;;
84527;SDS011;74768;51.152;6.196;2024-03-07T09:31:55;44.63;;;22.42;;
84527;SDS011;74768;51.152;6.196;2024-03-07T09:34:22;35.20;;;18.75;;
84527;SDS011;74768;51.152;6.196;2024-03-07T09:36:48;36.05;;;18.92;;
84527;SDS011;74768;51.152;6.196;2024-03-07T09:39:14;34.80;;;16.75;;
84527;SDS011;74768;51.152;6.196;2024-03-07T09:41:40;35.13;;;18.45;;
84527;SDS011;74768;51.152;6.196;2024-03-07T09:44:05;31.33;;;16.85;;
84527;SDS011;74768;51.152;6.196;2024-03-07T09:46:35;28.10;;;14.50;;
84527;SDS011;74768;51.152;6.196;2024-03-07T09:49:01;33.47;;;17.35;;
84527;SDS011;74768;51.152;6.196;2024-03-07T09:51:27;30.88;;;18.10;;
84527;SDS011;74768;51.152;6.196;2024-03-07T09:53:54;27.77;;;14.82;;
84527;SDS011;74768;51.152;6.196;2024-03-07T09:56:23;25.63;;;14.65;;
84527;SDS011;74768;51.152;6.196;2024-03-07T09:58:50;25.73;;;14.02;;
84527;SDS011;74768;51.152;6.196;2024-03-07T10:01:20;24.13;;;13.45;;
84527;SDS011;74768;51.152;6.196;2024-03-07T10:03:49;28.80;;;13.30;;
84527;SDS011;74768;51.152;6.196;2024-03-07T10:06:17;27.15;;;14.73;;
84527;SDS011;74768;51.152;6.196;2024-03-07T10:08:44;30.63;;;14.40;;
84527;SDS011;74768;51.152;6.196;2024-03-07T10:11:10;26.75;;;13.00;;
84527;SDS011;74768;51.152;6.196;2024-03-07T10:13:36;23.10;;;13.77;;
84527;SDS011;74768;51.152;6.196;2024-03-07T10:16:02;18.05;;;11.60;;
84527;SDS011;74768;51.152;6.196;2024-03-07T10:18:29;22.73;;;12.20;;
84527;SDS011;74768;51.152;6.196;2024-03-07T10:20:55;22.15;;;11.40;;
84527;SDS011;74768;51.152;6.196;2024-03-07T10:23:21;19.15;;;11.23;;
84527;SDS011;74768;51.152;6.196;2024-03-07T10:25:47;25.13;;;12.27;;
84527;SDS011;74768;51.152;6.196;2024-03-07T10:28:12;24.60;;;11.93;;
84527;SDS011;74768;51.152;6.196;2024-03-07T10:30:39;23.00;;;13.43;;
84527;SDS011;74768;51.152;6.196;2024-03-07T10:33:06;20.45;;;12.38;;
84527;SDS011;74768;51.152;6.196;2024-03-07T10:35:32;24.05;;;12.98;;
84527;SDS011;74768;51.152;6.196;2024-03-07T10:37:58;21.73;;;12.10;;
84527;SDS011;74768;51.152;6.196;2024-03-07T10:40:31;21.58;;;12.07;;
84527;SDS011;74768;51.152;6.196;2024-03-07T10:42:57;23.15;;;11.25;;
84527;SDS011;74768;51.152;6.196;2024-03-07T10:45:23;21.45;;;12.27;;
84527;SDS011;74768;51.152;6.196;2024-03-07T10:47:54;21.73;;;12.73;;
84527;SDS011;74768;51.152;6.196;2024-03-07T10:50:33;19.67;;;12.43;;
84527;SDS011;74768;51.152;6.196;2024-03-07T10:53:19;20.30;;;12.07;;
84527;SDS011;74768;51.152;6.196;2024-03-07T11:01:32;25.13;;;13.38;;
84527;SDS011;74768;51.152;6.196;2024-03-07T11:04:04;20.90;;;11.88;;
84527;SDS011;74768;51.152;6.196;2024-03-07T11:06:30;25.33;;;13.60;;
84527;SDS011;74768;51.152;6.196;2024-03-07T11:08:59;21.10;;;11.40;;
84527;SDS011;74768;51.152;6.196;2024-03-07T11:11:25;21.52;;;11.80;;
84527;SDS011;74768;51.152;6.196;2024-03-07T11:13:53;18.75;;;12.20;;
84527;SDS011;74768;51.152;6.196;2024-03-07T11:16:20;20.73;;;12.40;;
84527;SDS011;74768;51.152;6.196;2024-03-07T11:22:02;20.20;;;12.63;;
84527;SDS011;74768;51.152;6.196;2024-03-07T11:24:40;22.60;;;13.27;;
84527;SDS011;74768;51.152;6.196;2024-03-07T11:27:08;22.67;;;12.25;;
84527;SDS011;74768;51.152;6.196;2024-03-07T11:29:47;23.75;;;13.95;;
84527;SDS011;74768;51.152;6.196;2024-03-07T11:32:17;24.70;;;12.93;;
84527;SDS011;74768;51.152;6.196;2024-03-07T11:34:46;23.25;;;12.65;;
84527;SDS011;74768;51.152;6.196;2024-03-07T11:37:18;22.25;;;12.70;;
84527;SDS011;74768;51.152;6.196;2024-03-07T11:40:06;21.40;;;12.43;;
84527;SDS011;74768;51.152;6.196;2024-03-07T11:42:33;22.80;;;13.50;;
84527;SDS011;74768;51.152;6.196;2024-03-07T11:45:01;21.98;;;12.38;;
84527;SDS011;74768;51.152;6.196;2024-03-07T11:47:36;24.15;;;14.02;;
84527;SDS011;74768;51.152;6.196;2024-03-07T11:50:06;21.45;;;12.50;;
84527;SDS011;74768;51.152;6.196;2024-03-07T11:52:38;26.30;;;12.65;;
84527;SDS011;74768;51.152;6.196;2024-03-07T11:55:07;23.55;;;11.25;;
84527;SDS011;74768;51.152;6.196;2024-03-07T11:57:33;19.52;;;10.93;;
84527;SDS011;74768;51.152;6.196;2024-03-07T11:59:59;24.00;;;12.38;;
84527;SDS011;74768;51.152;6.196;2024-03-07T12:02:33;25.60;;;12.23;;
84527;SDS011;74768;51.152;6.196;2024-03-07T12:04:58;24.75;;;11.65;;
84527;SDS011;74768;51.152;6.196;2024-03-07T12:07:24;21.75;;;11.60;;
84527;SDS011;74768;51.152;6.196;2024-03-07T12:09:49;20.70;;;11.37;;
84527;SDS011;74768;51.152;6.196;2024-03-07T12:12:21;21.05;;;11.50;;
84527;SDS011;74768;51.152;6.196;2024-03-07T12:14:47;21.80;;;11.93;;
84527;SDS011;74768;51.152;6.196;2024-03-07T12:17:16;20.70;;;11.90;;
84527;SDS011;74768;51.152;6.196;2024-03-07T12:19:42;20.08;;;12.15;;
84527;SDS011;74768;51.152;6.196;2024-03-07T12:22:08;19.17;;;10.50;;
84527;SDS011;74768;51.152;6.196;2024-03-07T12:24:40;21.45;;;12.63;;
84527;SDS011;74768;51.152;6.196;2024-03-07T12:27:09;20.50;;;11.75;;
84527;SDS011;74768;51.152;6.196;2024-03-07T12:29:41;20.42;;;12.02;;
84527;SDS011;74768;51.152;6.196;2024-03-07T12:32:13;22.65;;;12.55;;
84527;SDS011;74768;51.152;6.196;2024-03-07T12:34:39;23.20;;;12.07;;
84527;SDS011;74768;51.152;6.196;2024-03-07T12:37:10;21.05;;;12.13;;
84527;SDS011;74768;51.152;6.196;2024-03-07T12:39:36;21.08;;;12.30;;
84527;SDS011;74768;51.152;6.196;2024-03-07T12:42:11;22.70;;;12.13;;
84527;SDS011;74768;51.152;6.196;2024-03-07T12:44:42;22.75;;;12.07;;
84527;SDS011;74768;51.152;6.196;2024-03-07T12:47:11;21.48;;;11.35;;
84527;SDS011;74768;51.152;6.196;2024-03-07T12:49:38;19.08;;;11.93;;
84527;SDS011;74768;51.152;6.196;2024-03-07T12:52:04;23.58;;;12.80;;
84527;SDS011;74768;51.152;6.196;2024-03-07T12:54:30;22.88;;;12.65;;
84527;SDS011;74768;51.152;6.196;2024-03-07T12:56:56;24.85;;;13.45;;
84527;SDS011;74768;51.152;6.196;2024-03-07T12:59:21;22.30;;;13.27;;
84527;SDS011;74768;51.152;6.196;2024-03-07T13:01:49;20.50;;;12.20;;
84527;SDS011;74768;51.152;6.196;2024-03-07T13:04:14;21.38;;;12.10;;
84527;SDS011;74768;51.152;6.196;2024-03-07T13:06:40;21.92;;;12.48;;
84527;SDS011;74768;51.152;6.196;2024-03-07T13:09:11;24.15;;;11.75;;
84527;SDS011;74768;51.152;6.196;2024-03-07T13:11:37;20.35;;;12.30;;
84527;SDS011;74768;51.152;6.196;2024-03-07T13:14:05;19.80;;;11.18;;
84527;SDS011;74768;51.152;6.196;2024-03-07T13:16:32;18.58;;;11.90;;
84527;SDS011;74768;51.152;6.196;2024-03-07T13:18:57;22.40;;;11.07;;
84527;SDS011;74768;51.152;6.196;2024-03-07T13:21:22;18.77;;;11.23;;
84527;SDS011;74768;51.152;6.196;2024-03-07T13:23:48;20.13;;;11.57;;
84527;SDS011;74768;51.152;6.196;2024-03-07T13:26:15;20.00;;;11.38;;
84527;SDS011;74768;51.152;6.196;2024-03-07T13:28:47;20.38;;;12.27;;
84527;SDS011;74768;51.152;6.196;2024-03-07T13:31:14;18.55;;;10.73;;
84527;SDS011;74768;51.152;6.196;2024-03-07T13:33:42;16.35;;;10.07;;
84527;SDS011;74768;51.152;6.196;2024-03-07T13:36:08;17.35;;;9.73;;
84527;SDS011;74768;51.152;6.196;2024-03-07T13:38:33;19.25;;;11.23;;
84527;SDS011;74768;51.152;6.196;2024-03-07T13:40:59;21.38;;;11.73;;
84527;SDS011;74768;51.152;6.196;2024-03-07T13:43:28;18.58;;;10.52;;
84527;SDS011;74768;51.152;6.196;2024-03-07T13:45:54;20.02;;;10.50;;
84527;SDS011;74768;51.152;6.196;2024-03-07T13:48:19;18.17;;;10.20;;
84527;SDS011;74768;51.152;6.196;2024-03-07T13:50:45;19.08;;;11.23;;
84527;SDS011;74768;51.152;6.196;2024-03-07T13:53:10;20.48;;;11.90;;
84527;SDS011;74768;51.152;6.196;2024-03-07T14:01:47;16.75;;;10.48;;
84527;SDS011;74768;51.152;6.196;2024-03-07T14:27:15;17.02;;;10.80;;
84527;SDS011;74768;51.152;6.196;2024-03-07T14:32:32;15.32;;;9.25;;
84527;SDS011;74768;51.152;6.196;2024-03-07T14:37:47;18.58;;;10.35;;
84527;SDS011;74768;51.152;6.196;2024-03-07T14:40:18;20.27;;;12.45;;
84527;SDS011;74768;51.152;6.196;2024-03-07T14:42:47;22.73;;;12.43;;
84527;SDS011;74768;51.152;6.196;2024-03-07T14:45:25;20.77;;;11.10;;
84527;SDS011;74768;51.152;6.196;2024-03-07T14:47:55;23.00;;;13.15;;
84527;SDS011;74768;51.152;6.196;2024-03-07T14:50:21;22.27;;;13.40;;
84527;SDS011;74768;51.152;6.196;2024-03-07T14:52:47;24.58;;;13.80;;
84527;SDS011;74768;51.152;6.196;2024-03-07T14:55:13;20.02;;;12.85;;
84527;SDS011;74768;51.152;6.196;2024-03-07T14:57:39;22.88;;;12.93;;
84527;SDS011;74768;51.152;6.196;2024-03-07T15:00:06;22.88;;;13.80;;
84527;SDS011;74768;51.152;6.196;2024-03-07T15:02:42;23.23;;;13.57;;